Terminal Aerodrome Forecast
Issued by NWS

Home | Current Version | Previous Version | Graphics & Text | Print | Product List | Glossary On
Versions: 1 2 3 4 5 6 7 8 9 10 11 12 13 14 15 16 17 18
000
FTUS41 KCLE 251500 AAA
TAFFDY
TAF AMD
KFDY 251518Z 2515/2612 20022G32KT P6SM VCSH BKN050 OVC120
      TEMPO 2515/2519 6SM -SHRA BKN050 OVC080
     FM252000 23022G32KT P6SM SCT050 BKN250
     FM260000 24010KT P6SM SCT040 BKN250
     FM260900 20008KT P6SM BKN015=

USA.gov is the U.S. government's official web portal to all federal, state and local government web resources and services.